Flight Track Log - Related Links

Times and Time Zones

All times are in EDT time to prevent confusion due to time zone crossing. See the UAL4596 flight status page for this flight to view local times or setup timezone preferences in your user account.

Time Position Orientation Groundspeed Altitude Reporting Facility
EDT Latitude Longitude Course Direction KTS MPH feet Rate Location/Type
Sun 08:11:47 29.9681 -95.3453 97° East 168 193 700  Level Houston Center
Sun 08:12:11 29.9564 -95.3297 131° Southeast 166 191 1,800 2,259 Climbing Houston Center
Sun 08:13:12 29.9236 -95.2711 123° Southeast 238 274 3,900 2,311 Climbing Houston Center
Sun 08:14:13 29.8917 -95.1978 117° Southeast 260 299 6,500 2,607 Climbing Houston Center
Sun 08:15:00 29.9086 -94.7697 95° East  Level FlightAware Approximate
Sun 08:15:14 29.8653 -95.1239 112° Southeast 272 313 9,200  Level Houston Center
Sun 08:16:00 29.8957 -94.6279 97° East  Level FlightAware Approximate
Sun 08:16:15 29.8647 -95.0275 90° East 295 339 11,700  Level Houston Center
Sun 08:17:16 29.8653 -94.9203 90° East 323 372 13,600 2,213 Climbing Houston Center
Sun 08:18:17 29.8650 -94.8078 90° East 344 396 16,200 2,262 Climbing Houston Center
Sun 08:19:18 29.8644 -94.6956 90° East 349 402 18,200 1,721 Climbing Houston Center
Sun 08:20:19 29.8647 -94.5725 90° East 373 429 19,700 1,426 Climbing Houston Center
Sun 08:21:20 29.8636 -94.4367 91° East 411 473 21,100 1,328 Climbing Houston Center
Sun 08:22:21 29.8628 -94.2942 90° East 436 502 22,400 1,426 Climbing Houston Center
Sun 08:23:22 29.8561 -94.1250 93° East 452 520 24,000 1,475 Climbing Houston Center
Sun 08:24:23 29.8600 -93.9742 88° East 468 539 25,400 1,328 Climbing Houston Center
Sun 08:25:24 29.8819 -93.8244 80° East 476 548 26,700 1,328 Climbing Houston Center
Sun 08:26:25 29.9092 -93.6753 78° East 477 549 28,100 1,328 Climbing Houston Center
Sun 08:27:26 29.9344 -93.5225 79° East 485 558 29,400 1,279 Climbing Houston Center
Sun 08:28:27 29.9611 -93.3711 78° East 488 562 30,700 787 Climbing Houston Center
Sun 08:29:28 29.9953 -93.1786 78° East 517 595 31,000 148 Climbing Houston Center
Sun 08:30:29 30.0225 -93.0069 80° East 547 629 31,000  Level Houston Center
Sun 08:31:30 30.0522 -92.8358 79° East 546 628 31,000  Level Houston Center
Sun 08:32:31 30.0817 -92.6628 79° East 552 635 31,000  Level Houston Center
Sun 08:33:32 30.1097 -92.4925 79° East 545 627 31,000  Level Houston Center
Sun 08:34:33 30.1381 -92.3206 79° East 546 628 31,000  Level Houston Center
Sun 08:35:34 30.1661 -92.1486 79° East 547 629 31,000  Level Houston Center
Sun 08:36:35 30.1944 -91.9761 79° East 547 629 31,000  Level Houston Center
Sun 08:37:36 30.2283 -91.7722 79° East 551 634 31,000  Level Houston Center
Sun 08:38:37 30.2564 -91.6022 79° East 544 626 31,000  Level Houston Center
Sun 08:39:38 30.2853 -91.4319 79° East 543 625 31,000  Level Houston Center
Sun 08:40:39 30.3100 -91.2592 81° East 544 626 31,000  Level Houston Center
Sun 08:41:40 30.3367 -91.0894 80° East 540 621 31,000  Level Houston Center
Sun 08:42:41 30.3617 -90.9192 80° East 538 619 31,000  Level Houston Center
Sun 08:43:42 30.3883 -90.7489 80° East 540 621 31,000  Level Houston Center
Sun 08:44:43 30.4128 -90.5786 81° East 536 617 31,000  Level Houston Center
Sun 08:45:44 30.4392 -90.4081 80° East 536 617 31,000 -738 Level Houston Center
Sun 08:46:45 30.4639 -90.2394 80° East 530 610 29,500 -1,525 Descending Houston Center
Sun 08:47:46 30.4886 -90.0753 80° East 515 593 27,900 -1,525 Descending Houston Center
Sun 08:48:47 30.5111 -89.9147 81° East 503 579 26,400 -1,525 Descending Houston Center
Sun 08:49:48 30.5339 -89.7561 80° East 491 565 24,800 -1,574 Descending Houston Center
Sun 08:50:49 30.5569 -89.5950 81° East 497 572 23,200 -1,574 Descending Houston Center
Sun 08:51:50 30.5786 -89.4378 81° East 494 568 21,600 -1,525 Descending Houston Center
Sun 08:52:51 30.5981 -89.2961 81° East 445 512 20,100 -1,525 Descending Houston Center
Sun 08:53:52 30.6150 -89.1672 81° East 408 470 18,500 -1,426 Descending Houston Center
Sun 08:54:53 30.6317 -89.0411 81° East 395 455 17,200 -1,475 Descending Houston Center
Sun 08:55:54 30.6486 -88.8950 82° East 400 460 15,500 -1,623 Descending Houston Center
Sun 08:56:55 30.6358 -88.7683 97° East 398 458 13,900 -1,525 Descending Houston Center
Sun 08:57:56 30.6247 -88.6453 96° East 389 448 12,400 -1,377 Descending Houston Center
Sun 08:58:57 30.6128 -88.5258 97° East 380 437 11,100 -639 Descending Houston Center
Sun 08:59:58 30.6014 -88.4086 96° East 370 426 11,100  Level Houston Center
Sun 09:00:59 30.5903 -88.2947 96° East 362 417 11,100 -49 Level Houston Center
Sun 09:02:00 30.5756 -88.1481 97° East 383 441 11,000  Descending Houston Center
Sun 09:03:01 30.5631 -88.0261 97° East 385 443 11,100 48 Climbing Houston Center
Sun 09:04:04 30.5506 -87.9061 97° East 379 436 11,100 -226 Level Houston Center
Sun 09:04:47 30.5386 -87.8194 99° East 377 434 10,700 -635 Descending Jacksonville Center
Sun 09:05:48 30.5267 -87.6983 97° East 353 406 10,000 -645 Descending Jacksonville Center
Sun 09:06:48 30.5175 -87.6039 96° East 289 333 9,400 -1,087 Descending Jacksonville Center
Sun 09:07:55 30.5067 -87.5044 97° East 272 313 7,700 -1,781 Descending Jacksonville Center
Sun 09:08:56 30.4847 -87.4192 107° East 264 304 5,600 -2,231 Descending Jacksonville Center
Sun 09:09:56 30.4664 -87.3461 106° East 244 281 3,200 -2,400 Descending Jacksonville Center

Login

Don't have an account? Register now (free) for customized features, flight alerts, and more!